Time;durP1;ratioP1;P1;durP2;ratioP2;P2;SDS_P1;SDS_P2;PMS_P1;PMS_P2;Temp;Humidity;BMP_temperature;BMP_pressure;BME280_temperature;BME280_humidity;BME280_pressure;Samples;Min_cycle;Max_cycle;Signal;HPM_P1;HPM_P2
2021/04/26 00:00:18;;;;;;;11.03;4.60;;;;;;;11.91;56.21;100541.42;1714711;82;21108;-51
2021/04/26 00:02:45;;;;;;;5.87;4.12;;;;;;;11.86;56.61;100535.34;1723156;82;21177;-70
2021/04/26 00:05:14;;;;;;;7.08;3.30;;;;;;;11.88;56.44;100534.41;1756454;81;21553;-69
2021/04/26 00:07:42;;;;;;;5.12;3.60;;;;;;;11.85;56.78;100531.81;1754240;80;21163;-51
2021/04/26 00:10:12;;;;;;;5.75;3.20;;;;;;;11.86;56.67;100538.84;1756123;82;21158;-51
2021/04/26 00:12:40;;;;;;;5.40;3.40;;;;;;;11.84;56.96;100539.77;1755212;80;21574;-51
2021/04/26 00:15:17;;;;;;;7.03;3.15;;;;;;;11.86;56.91;100533.56;1742637;80;21716;-68
2021/04/26 00:17:46;;;;;;;5.28;3.30;;;;;;;11.82;57.14;100534.50;1720411;83;21614;-68
2021/04/26 00:20:16;;;;;;;6.30;3.40;;;;;;;11.85;56.98;100527.86;1723525;81;21174;-68
2021/04/26 00:22:44;;;;;;;5.58;3.17;;;;;;;11.83;57.16;100536.23;1754807;82;21336;-51
2021/04/26 00:25:13;;;;;;;5.20;3.37;;;;;;;11.81;57.31;100533.22;1749991;80;21150;-51
2021/04/26 00:27:40;;;;;;;6.45;3.25;;;;;;;11.81;57.39;100530.11;1738816;82;21143;-69
2021/04/26 00:30:13;;;;;;;4.05;2.62;;;;;;;11.89;57.16;100532.66;1745381;81;21289;-51
2021/04/26 00:32:42;;;;;;;7.97;3.12;;;;;;;11.93;56.99;100531.69;1750864;81;21164;-69
2021/04/26 00:35:13;;;;;;;4.95;3.00;;;;;;;11.86;57.22;100532.23;1755770;82;21190;-68
2021/04/26 00:37:42;;;;;;;6.10;3.10;;;;;;;11.88;57.27;100532.23;1755994;82;21180;-69
2021/04/26 00:40:12;;;;;;;4.97;3.15;;;;;;;11.93;57.16;100526.88;1755625;80;21107;-69
2021/04/26 00:42:40;;;;;;;4.37;3.10;;;;;;;12.01;56.99;100519.28;1743429;80;21155;-51
2021/04/26 00:45:12;;;;;;;5.33;3.08;;;;;;;11.99;56.86;100520.19;1720741;83;21186;-68
2021/04/26 00:47:42;;;;;;;5.42;3.00;;;;;;;11.95;56.95;100525.94;1724780;80;21685;-68
2021/04/26 00:50:14;;;;;;;6.00;3.08;;;;;;;11.96;56.85;100521.09;1731893;82;21599;-68
2021/04/26 00:52:43;;;;;;;5.00;2.92;;;;;;;11.92;56.75;100523.81;1726104;83;21277;-51
2021/04/26 00:55:13;;;;;;;4.72;3.42;;;;;;;11.94;56.65;100522.88;1726114;83;21292;-52
2021/04/26 00:57:41;;;;;;;5.75;3.83;;;;;;;11.94;56.49;100520.70;1738958;80;21156;-69
2021/04/26 01:00:10;;;;;;;4.92;2.95;;;;;;;11.96;56.45;100513.18;1763851;80;21107;-67
2021/04/26 01:02:40;;;;;;;4.92;2.35;;;;;;;11.98;56.36;100505.26;1715478;83;21585;-69
2021/04/26 01:05:11;;;;;;;7.12;3.55;;;;;;;11.98;56.27;100501.30;1716909;82;21142;-52
2021/04/26 01:07:42;;;;;;;5.62;3.22;;;;;;;11.97;56.11;100495.60;1725435;80;21183;-69
2021/04/26 01:10:13;;;;;;;5.12;2.52;;;;;;;11.96;55.96;100497.35;1742104;81;21145;-69
2021/04/26 01:13:14;;;;;;;6.00;3.12;;;;;;;11.94;55.92;100492.55;1753748;82;21642;-69
2021/04/26 01:16:12;;;;;;;6.25;2.92;;;;;;;11.89;56.35;100492.63;1746516;80;21160;-51
2021/04/26 01:19:04;;;;;;;5.92;3.50;;;;;;;11.93;56.28;100481.57;1695471;84;21163;-69
2021/04/26 01:22:10;;;;;;;4.90;2.87;;;;;;;11.95;56.10;100479.78;1738451;82;21362;-52
2021/04/26 01:25:08;;;;;;;6.83;3.27;;;;;;;11.96;55.93;100483.31;1736246;81;21163;-51
2021/04/26 01:27:48;;;;;;;6.05;3.20;;;;;;;11.93;56.15;100473.66;1664819;85;21201;-51
2021/04/26 01:30:56;;;;;;;5.78;2.95;;;;;;;11.85;56.32;100468.52;1718400;83;21123;-68
2021/04/26 01:33:34;;;;;;;4.83;2.83;;;;;;;11.90;56.26;100457.91;1828403;77;22107;-67
2021/04/26 01:36:05;;;;;;;5.58;3.22;;;;;;;11.89;56.27;100463.63;1759243;81;21352;-66
2021/04/26 01:38:41;;;;;;;6.15;3.10;;;;;;;11.87;56.47;100464.56;1762009;81;21157;-50
2021/04/26 01:41:10;;;;;;;7.70;2.92;;;;;;;11.87;56.41;100462.77;1762181;81;21172;-51
2021/04/26 01:43:39;;;;;;;6.10;3.15;;;;;;;11.85;56.42;100455.34;1764014;81;21126;-51
2021/04/26 01:46:10;;;;;;;5.53;2.85;;;;;;;11.81;56.32;100449.69;1704767;83;21211;-52
2021/04/26 01:48:43;;;;;;;5.45;2.80;;;;;;;11.79;56.20;100444.88;1690882;84;21163;-60
2021/04/26 01:51:11;;;;;;;5.40;2.65;;;;;;;11.77;55.99;100443.18;1661471;85;21659;-68
2021/04/26 01:53:46;;;;;;;6.08;3.00;;;;;;;11.74;55.68;100442.77;1684401;84;21143;-51
2021/04/26 01:56:14;;;;;;;5.33;2.75;;;;;;;11.70;55.35;100441.09;1715801;82;21313;-60
2021/04/26 01:58:47;;;;;;;6.40;2.90;;;;;;;11.68;55.30;100451.66;1708829;83;21144;-69
2021/04/26 02:01:19;;;;;;;6.05;3.10;;;;;;;11.65;55.26;100450.84;1689770;84;21135;-69
2021/04/26 02:03:54;;;;;;;4.17;2.50;;;;;;;11.63;55.33;100456.12;1715418;84;21127;-69
2021/04/26 02:06:43;;;;;;;5.75;2.47;;;;;;;11.62;55.23;100464.07;1624859;87;21216;-52
2021/04/26 02:09:25;;;;;;;6.92;3.00;;;;;;;11.66;55.38;100464.45;1853154;77;22120;-65
2021/04/26 02:11:57;;;;;;;10.45;2.77;;;;;;;11.63;55.49;100468.45;1748262;80;21311;-67
2021/04/26 02:14:28;;;;;;;3.65;2.72;;;;;;;11.60;55.46;100453.53;1787794;80;21128;-67
2021/04/26 02:16:57;;;;;;;4.78;2.75;;;;;;;11.51;55.43;100456.30;1789368;80;21147;-62
2021/04/26 02:19:25;;;;;;;5.42;3.00;;;;;;;11.48;55.49;100456.38;1763291;80;21143;-66
2021/04/26 02:21:53;;;;;;;3.80;2.50;;;;;;;11.41;55.35;100456.46;1793038;80;21196;-66
2021/04/26 02:24:22;;;;;;;4.78;2.85;;;;;;;11.37;55.13;100456.51;1792934;80;21190;-54
2021/04/26 02:26:49;;;;;;;4.50;2.55;;;;;;;11.33;55.17;100459.65;1726525;81;21222;-53
2021/04/26 02:29:17;;;;;;;4.75;2.85;;;;;;;11.31;54.93;100456.16;1712661;81;21135;-53
2021/04/26 02:31:50;;;;;;;5.62;3.00;;;;;;;11.30;54.96;100453.10;1732006;83;21151;-66
2021/04/26 02:34:27;;;;;;;4.70;2.42;;;;;;;11.29;54.95;100456.16;1731660;83;21190;-66
2021/04/26 02:37:04;;;;;;;5.70;3.40;;;;;;;11.28;54.95;100453.56;1701263;83;21194;-66
2021/04/26 02:39:32;;;;;;;3.50;2.62;;;;;;;11.25;54.90;100449.23;1738258;82;21113;-65
2021/04/26 02:42:01;;;;;;;4.87;2.67;;;;;;;11.23;54.89;100452.76;1737849;82;21188;-65
2021/04/26 02:44:30;;;;;;;4.90;2.70;;;;;;;11.16;54.40;100458.11;1712934;82;21146;-53
2021/04/26 02:47:05;;;;;;;4.83;2.58;;;;;;;11.13;54.06;100454.19;1736566;81;21209;-52
2021/04/26 02:49:35;;;;;;;6.85;2.72;;;;;;;11.14;53.76;100450.66;1685339;84;21149;-65
2021/04/26 02:52:04;;;;;;;4.72;2.75;;;;;;;11.15;53.35;100451.09;1685415;84;21217;-64
2021/04/26 02:54:34;;;;;;;5.00;2.45;;;;;;;11.15;53.12;100451.55;1725232;82;21166;-53
2021/04/26 02:57:04;;;;;;;3.55;2.15;;;;;;;11.18;52.88;100454.58;1742469;81;21211;-65
2021/04/26 02:59:33;;;;;;;4.47;2.25;;;;;;;11.18;52.44;100454.15;1743041;82;21170;-53
2021/04/26 03:02:01;;;;;;;4.67;2.90;;;;;;;11.20;52.00;100461.59;1742598;82;21186;-52
2021/04/26 03:04:36;;;;;;;4.55;2.72;;;;;;;11.22;51.71;100454.97;1815808;77;28562;-51
2021/04/26 03:07:06;;;;;;;4.87;2.72;;;;;;;11.18;51.77;100450.63;1699222;83;21212;-63
2021/04/26 03:09:45;;;;;;;3.50;2.15;;;;;;;11.24;51.89;100450.55;1692000;84;21189;-53
2021/04/26 03:12:13;;;;;;;3.85;2.40;;;;;;;11.23;51.39;100450.13;1728226;83;21191;-64
2021/04/26 03:14:43;;;;;;;6.75;2.55;;;;;;;11.26;51.67;100455.35;1717491;81;21133;-53
2021/04/26 03:17:11;;;;;;;5.33;2.40;;;;;;;11.33;51.73;100450.42;1686079;85;21182;-65
2021/04/26 03:19:42;;;;;;;6.10;2.35;;;;;;;11.36;51.85;100454.77;1672020;84;21158;-66
2021/04/26 03:22:09;;;;;;;4.67;3.27;;;;;;;11.30;51.94;100453.10;1713592;83;21118;-65
2021/04/26 03:24:39;;;;;;;4.67;2.50;;;;;;;11.30;51.98;100449.15;1671148;84;21293;-53
2021/04/26 03:27:07;;;;;;;3.95;2.60;;;;;;;11.31;51.28;100454.84;1696717;84;21499;-52
2021/04/26 03:29:35;;;;;;;4.03;2.40;;;;;;;11.34;51.23;100454.80;1697095;84;21233;-58
2021/04/26 03:32:04;;;;;;;3.37;2.20;;;;;;;11.37;50.42;100451.23;1705769;83;21137;-52
2021/04/26 03:34:33;;;;;;;;;;;;;;;11.43;50.36;100447.20;1700185;83;21630;-65
2021/04/26 03:37:02;;;;;;;5.70;2.75;;;;;;;11.47;49.93;100452.86;1696817;83;20277;-65
2021/04/26 03:39:30;;;;;;;5.50;2.67;;;;;;;11.48;49.64;100455.06;1672169;83;21249;-65
2021/04/26 03:42:00;;;;;;;6.90;2.83;;;;;;;11.45;49.96;100455.53;1716282;83;21334;-51
2021/04/26 03:44:29;;;;;;;5.65;2.50;;;;;;;11.48;50.23;100456.38;1696913;84;21159;-64
2021/04/26 03:47:10;;;;;;;5.12;2.95;;;;;;;11.51;50.15;100465.53;1692884;83;21220;-66
2021/04/26 03:49:55;;;;;;;3.20;2.00;;;;;;;11.54;50.52;100466.38;1813884;77;22599;-63
2021/04/26 03:52:42;;;;;;;4.33;2.58;;;;;;;11.48;50.52;100469.09;1737234;80;21170;-65
2021/04/26 03:55:26;;;;;;;5.60;3.17;;;;;;;11.54;50.72;100466.38;1819209;77;38276;-64
2021/04/26 03:57:55;;;;;;;5.35;2.90;;;;;;;11.51;50.57;100466.41;1754860;80;21162;-65
2021/04/26 04:00:23;;;;;;;5.05;2.90;;;;;;;11.57;50.74;100466.75;1741573;81;21555;-52
2021/04/26 04:02:53;;;;;;;3.58;2.47;;;;;;;11.61;50.36;100463.19;1731840;81;21342;-52
2021/04/26 04:05:23;;;;;;;4.87;2.52;;;;;;;11.66;50.54;100454.77;1731635;83;21171;-65
2021/04/26 04:08:10;;;;;;;4.72;2.98;;;;;;;11.69;50.62;100468.36;1726293;80;21480;-66
2021/04/26 04:10:56;;;;;;;8.80;3.40;;;;;;;11.76;50.23;100459.43;1759094;81;21597;-51
2021/04/26 04:13:42;;;;;;;5.58;2.72;;;;;;;11.84;50.30;100460.65;1761806;81;21158;-51
2021/04/26 04:16:10;;;;;;;5.58;2.77;;;;;;;11.89;50.04;100453.53;1760275;81;21207;-51
2021/04/26 04:18:38;;;;;;;4.67;2.60;;;;;;;11.97;49.96;100459.53;1757280;80;21130;-65
2021/04/26 04:21:06;;;;;;;6.67;3.05;;;;;;;12.01;50.44;100466.53;1720329;83;21150;-66
2021/04/26 04:23:33;;;;;;;4.85;2.90;;;;;;;12.03;50.20;100463.42;1699601;84;21169;-51
2021/04/26 04:26:02;;;;;;;6.20;3.22;;;;;;;12.05;50.34;100458.13;1708052;83;21102;-66
2021/04/26 04:28:31;;;;;;;6.10;3.25;;;;;;;12.07;50.53;100462.94;1712291;83;21195;-52
2021/04/26 04:31:00;;;;;;;4.90;3.10;;;;;;;12.09;50.73;100461.14;1700266;84;21161;-66
2021/04/26 04:33:35;;;;;;;6.92;3.90;;;;;;;12.13;50.70;100454.03;1818477;77;28395;-66
2021/04/26 04:36:11;;;;;;;5.25;3.30;;;;;;;12.12;50.42;100460.20;1754839;80;21162;-67
2021/04/26 04:38:58;;;;;;;6.75;3.75;;;;;;;12.13;50.58;100449.64;1731690;83;21150;-68
2021/04/26 04:41:49;;;;;;;7.65;3.67;;;;;;;12.20;50.64;100453.89;1807235;77;22159;-66
2021/04/26 04:44:17;;;;;;;5.87;3.40;;;;;;;12.18;50.63;100456.14;1740679;81;21123;-59
2021/04/26 04:46:45;;;;;;;5.08;2.77;;;;;;;12.20;50.56;100452.56;1679173;84;21178;-50
2021/04/26 04:49:18;;;;;;;4.50;2.90;;;;;;;12.20;50.94;100456.98;1704993;84;21578;-68
2021/04/26 04:51:46;;;;;;;7.95;3.50;;;;;;;12.21;50.90;100456.09;1682902;84;21329;-52
2021/04/26 04:54:15;;;;;;;8.28;4.25;;;;;;;12.19;50.58;100464.48;1693360;84;21170;-53
2021/04/26 04:56:44;;;;;;;5.10;3.25;;;;;;;12.23;50.85;100459.58;1696454;84;21332;-64
2021/04/26 04:59:12;;;;;;;6.30;3.62;;;;;;;12.22;51.19;100459.16;1701659;83;21124;-53
2021/04/26 05:01:41;;;;;;;8.68;3.58;;;;;;;12.17;52.04;100453.94;1701757;83;21111;-66
2021/04/26 05:04:27;;;;;;;5.50;4.05;;;;;;;12.11;52.39;100458.46;1698121;83;21175;-54
2021/04/26 05:07:13;;;;;;;6.22;4.08;;;;;;;12.02;53.29;100451.59;1693519;83;21198;-53
2021/04/26 05:09:59;;;;;;;7.40;4.30;;;;;;;11.92;53.88;100443.37;1690105;85;21214;-54
2021/04/26 05:12:45;;;;;;;5.80;3.62;;;;;;;11.86;54.16;100461.50;1693279;83;21178;-66
2021/04/26 05:15:22;;;;;;;8.25;5.28;;;;;;;11.83;54.89;100477.37;1695561;84;21157;-52
2021/04/26 05:17:51;;;;;;;8.80;4.47;;;;;;;11.70;55.48;100481.50;1713160;84;21212;-65
2021/04/26 05:20:19;;;;;;;7.17;4.28;;;;;;;11.61;55.86;100475.05;1697989;84;21284;-52
2021/04/26 05:22:47;;;;;;;7.95;5.03;;;;;;;11.54;56.25;100468.12;1695820;84;21206;-52
2021/04/26 05:25:15;;;;;;;5.72;4.40;;;;;;;11.50;56.39;100464.67;1678970;84;21300;-64
2021/04/26 05:27:43;;;;;;;7.75;4.95;;;;;;;11.50;56.78;100464.67;1719169;83;21338;-64
2021/04/26 05:30:14;;;;;;;9.25;4.80;;;;;;;11.52;57.14;100469.47;1696356;83;21206;-64
2021/04/26 05:32:41;;;;;;;7.08;4.72;;;;;;;11.57;57.45;100468.08;1697889;84;21522;-64
2021/04/26 05:35:23;;;;;;;8.98;5.37;;;;;;;11.62;57.69;100468.88;1693814;84;21331;-52
2021/04/26 05:37:51;;;;;;;8.58;5.78;;;;;;;11.71;58.17;100462.58;1713138;84;21178;-53
2021/04/26 05:40:18;;;;;;;8.90;5.55;;;;;;;11.80;57.75;100464.23;1694742;84;21179;-64
2021/04/26 05:42:48;;;;;;;11.48;6.03;;;;;;;11.70;57.45;100468.32;1755368;82;21147;-53
2021/04/26 05:45:18;;;;;;;8.63;5.60;;;;;;;11.83;57.57;100469.45;1731461;81;21115;-53
2021/04/26 05:48:05;;;;;;;8.28;6.12;;;;;;;11.82;57.60;100457.16;1757862;81;21161;-52
2021/04/26 05:50:36;;;;;;;8.43;5.80;;;;;;;11.88;57.76;100455.75;1733992;81;21154;-52
2021/04/26 05:53:04;;;;;;;7.58;5.62;;;;;;;11.85;57.98;100467.67;1742496;82;21147;-52
2021/04/26 05:55:32;;;;;;;7.83;6.05;;;;;;;11.82;58.31;100471.67;1754582;82;21630;-63
2021/04/26 05:57:59;;;;;;;7.62;5.83;;;;;;;11.82;58.31;100483.07;1752845;82;21220;-63
2021/04/26 06:00:28;;;;;;;8.93;7.30;;;;;;;11.85;58.66;100479.53;1728971;82;21254;-53
2021/04/26 06:02:58;;;;;;;11.75;8.18;;;;;;;11.84;58.84;100487.02;1737672;81;21139;-64
2021/04/26 06:05:26;;;;;;;11.38;7.50;;;;;;;11.88;58.71;100494.84;1747663;82;21195;-65
2021/04/26 06:07:54;;;;;;;11.03;7.92;;;;;;;11.96;58.67;100492.54;1733359;82;21135;-65
2021/04/26 06:10:22;;;;;;;10.78;8.68;;;;;;;11.97;58.71;100487.69;1732817;82;21167;-65
2021/04/26 06:12:50;;;;;;;11.88;8.00;;;;;;;12.05;58.55;100488.00;1744418;82;21139;-64
2021/04/26 06:15:18;;;;;;;13.53;9.60;;;;;;;12.15;58.73;100481.27;1724722;83;21191;-52
2021/04/26 06:17:46;;;;;;;10.72;8.65;;;;;;;12.24;58.82;100482.86;1724022;83;21171;-64
2021/04/26 06:20:14;;;;;;;15.08;10.45;;;;;;;12.45;58.75;100482.49;1748119;82;21630;-65
2021/04/26 06:22:42;;;;;;;11.00;9.20;;;;;;;12.52;58.17;100495.12;1742370;82;21151;-52
2021/04/26 06:25:12;;;;;;;11.45;8.08;;;;;;;12.75;58.22;100488.55;1740127;82;21155;-52
2021/04/26 06:27:39;;;;;;;15.72;10.00;;;;;;;12.81;58.01;100487.08;1739780;82;21652;-67
2021/04/26 06:30:09;;;;;;;16.97;10.98;;;;;;;12.92;58.14;100495.66;1747641;82;21112;-68
2021/04/26 06:32:37;;;;;;;15.55;10.30;;;;;;;13.05;58.03;100480.89;1753890;82;21172;-68
2021/04/26 06:35:07;;;;;;;12.15;9.88;;;;;;;13.14;57.57;100483.78;1747340;82;21103;-52
2021/04/26 06:37:36;;;;;;;12.63;8.68;;;;;;;13.16;57.24;100492.55;1724752;82;21305;-53
2021/04/26 06:40:07;;;;;;;14.55;11.22;;;;;;;13.03;56.80;100485.33;1724284;83;21147;-53
2021/04/26 06:42:35;;;;;;;10.90;8.90;;;;;;;13.04;57.30;100496.32;1717051;83;21213;-52
2021/04/26 06:45:06;;;;;;;10.35;8.35;;;;;;;12.96;57.76;100495.60;1721608;82;21159;-69
2021/04/26 06:47:34;;;;;;;11.73;8.80;;;;;;;12.95;57.88;100497.39;1717233;83;21167;-52
2021/04/26 06:50:02;;;;;;;11.55;9.15;;;;;;;12.91;57.66;100493.92;1716947;83;21132;-54
2021/04/26 06:52:31;;;;;;;15.75;10.13;;;;;;;12.88;57.92;100491.34;1741782;82;21711;-61
2021/04/26 06:54:59;;;;;;;12.98;10.20;;;;;;;12.81;57.98;100488.39;1744145;82;21140;-70
2021/04/26 06:57:27;;;;;;;12.35;9.95;;;;;;;12.87;58.02;100496.20;1717043;83;21152;-53
2021/04/26 06:59:55;;;;;;;11.90;9.48;;;;;;;12.89;58.08;100512.04;1728631;82;21156;-68
2021/04/26 07:02:22;;;;;;;20.17;11.68;;;;;;;12.83;58.63;100513.47;1737712;82;21177;-69
2021/04/26 07:04:50;;;;;;;12.18;9.93;;;;;;;12.88;58.76;100516.44;1717023;82;21171;-52
2021/04/26 07:07:18;;;;;;;14.10;11.45;;;;;;;12.85;59.16;100515.64;1682355;84;21131;-70
2021/04/26 07:09:48;;;;;;;;;;;;;;;12.88;58.74;100520.39;1725201;82;21128;-52
2021/04/26 07:12:16;;;;;;;16.40;11.73;;;;;;;12.86;59.02;100523.52;1727512;82;20143;-69
2021/04/26 07:14:43;;;;;;;16.75;13.58;;;;;;;12.82;59.17;100519.19;1716852;83;21139;-67
2021/04/26 07:17:11;;;;;;;18.75;14.28;;;;;;;12.88;58.54;100524.83;1716868;83;21167;-68
2021/04/26 07:19:39;;;;;;;18.07;14.78;;;;;;;12.83;58.16;100528.86;1718782;82;21297;-52
2021/04/26 07:22:07;;;;;;;19.05;15.88;;;;;;;11.96;60.04;100532.96;1715369;83;21585;-52
2021/04/26 07:24:35;;;;;;;21.97;17.05;;;;;;;11.82;60.96;100534.96;1715525;84;21575;-68
2021/04/26 07:27:03;;;;;;;18.02;15.58;;;;;;;11.80;61.42;100540.70;1715686;84;21519;-69
2021/04/26 07:29:32;;;;;;;22.75;17.60;;;;;;;11.83;61.59;100536.23;1723556;82;21151;-51
2021/04/26 07:31:59;;;;;;;19.73;15.38;;;;;;;11.87;61.55;100539.26;1716763;83;21575;-52
2021/04/26 07:34:27;;;;;;;21.33;16.35;;;;;;;11.90;62.10;100537.89;1716620;83;21191;-53
2021/04/26 07:36:57;;;;;;;19.95;15.55;;;;;;;11.98;62.29;100543.50;1720521;82;21147;-68
2021/04/26 07:39:25;;;;;;;21.20;15.60;;;;;;;12.90;59.44;100541.05;1727571;82;21127;-68
2021/04/26 07:41:52;;;;;;;22.25;16.50;;;;;;;13.11;58.96;100541.54;1716714;83;22323;-52
2021/04/26 07:44:21;;;;;;;23.92;16.57;;;;;;;13.15;58.51;100545.87;1716807;83;21167;-68
2021/04/26 07:46:48;;;;;;;16.95;13.58;;;;;;;13.26;58.62;100550.03;1716992;83;21165;-68
2021/04/26 07:49:16;;;;;;;16.32;10.65;;;;;;;13.33;58.26;100548.58;1744823;82;21151;-52
2021/04/26 07:51:44;;;;;;;13.38;10.50;;;;;;;13.36;57.44;100551.16;1746720;82;21216;-52
2021/04/26 07:54:11;;;;;;;14.60;11.45;;;;;;;13.54;56.84;100551.68;1741997;82;21155;-52
2021/04/26 07:56:40;;;;;;;12.75;9.60;;;;;;;13.85;57.18;100547.05;1732840;82;21559;-53
2021/04/26 07:59:07;;;;;;;12.98;9.08;;;;;;;14.12;55.73;100540.66;1702460;84;21119;-52
2021/04/26 08:01:35;;;;;;;14.78;9.10;;;;;;;14.35;53.41;100535.27;1746427;82;21567;-68
2021/04/26 08:04:04;;;;;;;11.85;8.23;;;;;;;14.58;53.44;100540.81;1746432;82;21290;-67
2021/04/26 08:06:32;;;;;;;12.75;9.45;;;;;;;14.96;53.50;100540.73;1735843;82;21261;-68
2021/04/26 08:08:59;;;;;;;10.75;7.58;;;;;;;15.33;53.10;100543.23;1746612;82;21603;-67
2021/04/26 08:11:29;;;;;;;8.35;6.35;;;;;;;15.60;51.81;100544.19;1746479;81;21136;-67
2021/04/26 08:13:56;;;;;;;11.00;7.22;;;;;;;15.91;51.01;100549.41;1746488;82;21191;-67
2021/04/26 08:16:25;;;;;;;8.95;5.85;;;;;;;16.25;50.70;100543.47;1742882;82;21160;-52
2021/04/26 08:18:55;;;;;;;8.08;5.12;;;;;;;16.53;48.69;100549.20;1746543;82;21149;-52
2021/04/26 08:21:23;;;;;;;8.10;5.62;;;;;;;16.61;47.54;100545.78;1746426;82;21627;-68
2021/04/26 08:23:56;;;;;;;7.08;4.62;;;;;;;16.72;47.04;100547.20;1737106;82;21282;-52
2021/04/26 08:26:24;;;;;;;5.30;4.00;;;;;;;16.85;46.65;100546.30;1718592;82;21207;-66
2021/04/26 08:28:52;;;;;;;4.45;3.15;;;;;;;16.95;47.74;100541.95;1731003;82;21131;-66
2021/04/26 08:31:21;;;;;;;6.80;3.12;;;;;;;17.09;45.77;100554.77;1746408;82;21298;-67
2021/04/26 08:33:49;;;;;;;4.80;3.22;;;;;;;17.09;44.68;100553.89;1730496;82;21108;-68
2021/04/26 08:36:19;;;;;;;;;;;;;;;17.44;46.19;100558.82;1735469;81;21120;-67
2021/04/26 08:38:48;;;;;;;5.08;2.50;;;;;;;17.97;45.72;100561.63;1717137;82;20151;-53
2021/04/26 08:41:16;;;;;;;3.65;1.62;;;;;;;18.37;45.33;100570.67;1681238;85;21123;-54
2021/04/26 08:43:46;;;;;;;1.82;1.32;;;;;;;18.15;42.96;100573.84;1741578;82;21151;-55
2021/04/26 08:46:14;;;;;;;1.37;0.75;;;;;;;18.11;42.79;100577.95;1718885;82;21156;-67
2021/04/26 08:48:44;;;;;;;1.30;0.72;;;;;;;18.08;41.81;100579.41;1716791;83;21140;-53
2021/04/26 08:51:12;;;;;;;1.60;0.88;;;;;;;18.05;43.09;100591.52;1728210;82;21289;-66
2021/04/26 08:53:40;;;;;;;1.32;0.60;;;;;;;18.21;43.52;100587.77;1729068;82;21114;-56
2021/04/26 08:56:09;;;;;;;1.15;0.70;;;;;;;18.28;42.89;100585.73;1717927;82;21290;-67
2021/04/26 08:58:37;;;;;;;2.85;0.60;;;;;;;18.20;42.02;100580.70;1746433;82;21168;-66
2021/04/26 09:01:06;;;;;;;0.57;0.40;;;;;;;18.09;41.79;100597.13;1724232;82;21148;-54
2021/04/26 09:03:36;;;;;;;1.00;0.70;;;;;;;17.89;41.64;100608.53;1682068;85;21178;-53
2021/04/26 09:06:07;;;;;;;3.00;0.50;;;;;;;17.72;42.36;100612.30;1746696;82;21376;-54
2021/04/26 09:08:35;;;;;;;0.72;0.47;;;;;;;17.58;41.56;100620.37;1739405;81;21171;-52
2021/04/26 09:11:06;;;;;;;3.15;0.50;;;;;;;17.29;42.09;100619.64;1737872;82;21366;-53
2021/04/26 09:13:45;;;;;;;0.40;0.30;;;;;;;17.11;43.20;100617.67;1746639;82;21093;-66
2021/04/26 09:16:20;;;;;;;0.98;0.70;;;;;;;16.90;43.30;100622.78;1746590;82;21176;-53
2021/04/26 09:18:55;;;;;;;0.88;0.50;;;;;;;16.45;43.34;100625.62;1729093;81;21147;-66
2021/04/26 09:21:32;;;;;;;0.30;0.28;;;;;;;16.12;44.22;100632.41;1682210;84;21356;-53
2021/04/26 09:24:19;;;;;;;0.85;0.47;;;;;;;15.97;45.72;100629.33;1710415;84;21123;-53
2021/04/26 09:27:06;;;;;;;0.62;0.40;;;;;;;15.88;44.98;100637.13;1742735;82;21124;-54
2021/04/26 09:29:34;;;;;;;0.75;0.50;;;;;;;15.82;44.70;100637.72;1682451;85;21166;-66
2021/04/26 09:32:13;;;;;;;0.90;0.60;;;;;;;15.67;44.32;100628.44;1742879;82;21609;-67
2021/04/26 09:34:51;;;;;;;3.52;0.50;;;;;;;15.68;44.01;100633.68;1746596;82;21268;-52
2021/04/26 09:37:28;;;;;;;0.30;0.20;;;;;;;15.82;44.15;100643.03;1724524;81;21651;-54
2021/04/26 09:40:08;;;;;;;0.68;0.40;;;;;;;15.89;44.14;100640.20;1716909;83;21168;-53
2021/04/26 09:42:56;;;;;;;1.80;0.42;;;;;;;15.91;43.99;100650.28;1681922;85;21336;-66
2021/04/26 09:45:37;;;;;;;0.40;0.30;;;;;;;15.86;43.76;100641.61;1745460;82;21249;-67
2021/04/26 09:48:18;;;;;;;0.80;0.30;;;;;;;15.91;44.36;100660.05;1746525;81;21184;-53
2021/04/26 09:51:08;;;;;;;1.25;0.40;;;;;;;15.80;42.79;100666.09;1740267;81;21543;-52
2021/04/26 09:53:45;;;;;;;1.73;0.43;;;;;;;15.46;43.28;100672.78;1746753;82;21555;-65
2021/04/26 09:56:29;;;;;;;0.62;0.60;;;;;;;15.07;44.29;100672.96;1729169;82;21204;-52
2021/04/26 09:58:58;;;;;;;0.62;0.47;;;;;;;15.00;44.50;100672.26;1682411;85;21111;-53
2021/04/26 10:01:29;;;;;;;0.65;0.50;;;;;;;14.99;45.11;100671.84;1746584;82;21186;-67
2021/04/26 10:03:57;;;;;;;0.65;0.50;;;;;;;15.09;44.37;100670.25;1745645;82;21131;-52
2021/04/26 10:06:28;;;;;;;0.93;0.60;;;;;;;14.94;44.88;100676.83;1746666;82;21160;-68
2021/04/26 10:09:02;;;;;;;1.98;0.60;;;;;;;15.01;45.62;100682.39;1706855;84;21284;-53
2021/04/26 10:11:32;;;;;;;1.20;0.60;;;;;;;15.11;46.11;100675.95;1716874;83;21213;-53
2021/04/26 10:14:14;;;;;;;1.75;0.70;;;;;;;15.48;46.24;100687.31;1744768;82;21595;-53
2021/04/26 10:17:03;;;;;;;0.72;0.50;;;;;;;15.93;45.22;100685.20;1710860;83;21139;-67
2021/04/26 10:19:49;;;;;;;0.90;0.60;;;;;;;16.19;43.74;100681.31;1746074;82;21582;-66
2021/04/26 10:22:39;;;;;;;1.50;0.80;;;;;;;16.52;43.02;100684.29;1745829;82;21183;-68
2021/04/26 10:25:09;;;;;;;0.72;0.53;;;;;;;16.86;42.75;100684.50;1711357;84;21259;-54
2021/04/26 10:27:41;;;;;;;1.05;0.70;;;;;;;17.29;41.73;100679.50;1744307;81;21735;-66
2021/04/26 10:30:14;;;;;;;0.50;0.50;;;;;;;17.43;40.91;100688.34;1720191;82;21320;-54
2021/04/26 10:33:03;;;;;;;0.45;0.45;;;;;;;17.51;39.46;100684.91;1746482;82;21168;-53
2021/04/26 10:35:50;;;;;;;0.80;0.60;;;;;;;17.19;40.15;100674.97;1746536;82;21140;-54
2021/04/26 10:38:44;;;;;;;2.05;0.70;;;;;;;16.98;41.25;100677.06;1743060;81;21191;-66
2021/04/26 10:41:14;;;;;;;1.00;0.72;;;;;;;17.10;41.30;100681.94;1718895;82;21201;-68
2021/04/26 10:43:49;;;;;;;1.25;0.60;;;;;;;17.42;41.85;100699.02;1684760;83;21179;-66
2021/04/26 10:46:20;;;;;;;1.32;0.80;;;;;;;17.54;40.08;100699.92;1680322;85;21162;-65
2021/04/26 10:49:10;;;;;;;0.90;0.80;;;;;;;17.43;38.79;100703.42;1746489;82;21151;-53
2021/04/26 10:51:39;;;;;;;1.12;0.90;;;;;;;17.24;39.48;100695.63;1746539;81;21230;-55
2021/04/26 10:54:08;;;;;;;1.30;0.90;;;;;;;16.95;38.98;100697.93;1746496;82;21171;-66
2021/04/26 10:56:38;;;;;;;1.42;1.00;;;;;;;16.78;40.16;100709.13;1745055;82;21745;-53
2021/04/26 10:59:40;;;;;;;1.55;1.05;;;;;;;16.29;40.86;100719.55;1746479;82;21131;-53
2021/04/26 11:02:14;;;;;;;1.77;1.30;;;;;;;16.68;39.84;100702.38;1714862;82;21211;-67
2021/04/26 11:05:05;;;;;;;1.87;1.10;;;;;;;16.86;39.97;100711.52;1733174;82;21263;-66
2021/04/26 11:07:37;;;;;;;2.22;1.60;;;;;;;17.09;40.40;100700.14;1751774;81;21142;-67
2021/04/26 11:10:31;;;;;;;2.00;1.20;;;;;;;17.59;40.12;100695.30;1759439;81;21129;-53
2021/04/26 11:13:02;;;;;;;1.95;1.40;;;;;;;17.95;39.52;100693.52;1757606;81;21166;-66
2021/04/26 11:15:31;;;;;;;2.20;1.50;;;;;;;18.32;38.14;100691.25;1738054;81;21189;-57
2021/04/26 11:18:08;;;;;;;2.95;2.05;;;;;;;18.50;36.84;100688.77;1744113;81;21191;-54
2021/04/26 11:20:39;;;;;;;2.87;1.60;;;;;;;18.47;37.18;100684.44;1745702;81;21145;-67
2021/04/26 11:23:08;;;;;;;12.47;2.40;;;;;;;18.27;36.60;100682.09;1729961;81;21168;-67
2021/04/26 11:25:39;;;;;;;2.92;1.80;;;;;;;18.13;38.62;100681.76;1664488;84;21208;-53
2021/04/26 11:28:09;;;;;;;1.92;1.35;;;;;;;18.11;36.56;100682.28;1715004;82;21335;-54
2021/04/26 11:30:37;;;;;;;3.58;1.60;;;;;;;18.23;36.98;100680.48;1744129;81;21165;-66
2021/04/26 11:33:09;;;;;;;3.20;1.77;;;;;;;18.63;37.59;100681.13;1718828;81;21158;-53
2021/04/26 11:35:59;;;;;;;2.12;1.35;;;;;;;19.04;36.32;100681.69;1715050;84;21208;-65
2021/04/26 11:38:27;;;;;;;3.65;1.70;;;;;;;19.08;34.38;100686.81;1731751;82;21138;-53
2021/04/26 11:40:55;;;;;;;2.30;1.80;;;;;;;18.95;35.00;100674.45;1744947;81;21169;-52
2021/04/26 11:43:24;;;;;;;7.08;2.02;;;;;;;19.10;36.19;100680.10;1744603;81;21287;-66
2021/04/26 11:45:52;;;;;;;3.27;1.87;;;;;;;19.19;33.96;100673.03;1738174;82;21298;-66
2021/04/26 11:48:26;;;;;;;2.72;2.00;;;;;;;19.13;34.89;100672.81;1727856;81;21271;-53